Honeoye Falls, New York
Current Conditions -  °F | °C
As of 11:54 PM on Friday 24 Oct 2014 (Local Time) from KROC Reporting Station
Few Clouds Few Clouds  
Wind Chill: 40°   Ceiling: Unl
Heat Index: 44°   Visibility: 7mi
Dew Point: 42°   Wind: 7mph
Humidity: 93%   Direction: 220°SW
Pressure: 29.92"   Gusts: NA
Location:  42.95°N, 77.59°W
Report Text: KROC 250354Z 22006KT 7SM FEW180 07/06 A2992 RMK AO2 SLP136 T00670056
Loading
Personal Weather Stations






























Interactive Weather Map
Tropical Storm Tracking
New forecast layout! Learn more

10-Day Weather Forecast

Advertisements
Track Severe Weather on mobile